sensor_id;sensor_type;location;lat;lon;timestamp;P1;durP1;ratioP1;P2;durP2;ratioP2
76393;SDS011;65216;51.090;-115.352;2023-09-30T00:02:04;14.60;;;2.10;;
76393;SDS011;65216;51.090;-115.352;2023-09-30T00:04:33;18.50;;;2.20;;
76393;SDS011;65216;51.090;-115.352;2023-09-30T00:07:00;16.50;;;1.60;;
76393;SDS011;65216;51.090;-115.352;2023-09-30T00:09:27;16.40;;;3.00;;
76393;SDS011;65216;51.090;-115.352;2023-09-30T00:11:54;19.70;;;1.50;;
76393;SDS011;65216;51.090;-115.352;2023-09-30T00:14:21;22.10;;;2.10;;
76393;SDS011;65216;51.090;-115.352;2023-09-30T00:16:48;16.10;;;2.10;;
76393;SDS011;65216;51.090;-115.352;2023-09-30T00:19:18;18.10;;;2.00;;
76393;SDS011;65216;51.090;-115.352;2023-09-30T00:21:47;16.30;;;2.10;;
76393;SDS011;65216;51.090;-115.352;2023-09-30T00:24:14;15.80;;;2.00;;
76393;SDS011;65216;51.090;-115.352;2023-09-30T00:26:41;16.90;;;2.00;;
76393;SDS011;65216;51.090;-115.352;2023-09-30T00:29:07;23.40;;;1.80;;
76393;SDS011;65216;51.090;-115.352;2023-09-30T00:31:36;25.80;;;2.00;;
76393;SDS011;65216;51.090;-115.352;2023-09-30T00:34:03;16.90;;;1.60;;
76393;SDS011;65216;51.090;-115.352;2023-09-30T00:36:30;23.20;;;2.00;;
76393;SDS011;65216;51.090;-115.352;2023-09-30T00:39:02;23.40;;;1.90;;
76393;SDS011;65216;51.090;-115.352;2023-09-30T00:41:31;22.00;;;2.30;;
76393;SDS011;65216;51.090;-115.352;2023-09-30T00:43:59;24.60;;;2.40;;
76393;SDS011;65216;51.090;-115.352;2023-09-30T00:46:31;18.00;;;2.00;;
76393;SDS011;65216;51.090;-115.352;2023-09-30T00:49:00;18.70;;;1.80;;
76393;SDS011;65216;51.090;-115.352;2023-09-30T00:51:33;14.90;;;1.80;;
76393;SDS011;65216;51.090;-115.352;2023-09-30T00:54:03;20.20;;;1.70;;
76393;SDS011;65216;51.090;-115.352;2023-09-30T00:56:35;19.00;;;2.30;;
76393;SDS011;65216;51.090;-115.352;2023-09-30T00:59:15;12.10;;;1.60;;
76393;SDS011;65216;51.090;-115.352;2023-09-30T01:01:43;15.10;;;1.70;;
76393;SDS011;65216;51.090;-115.352;2023-09-30T01:04:13;19.00;;;1.80;;
76393;SDS011;65216;51.090;-115.352;2023-09-30T01:06:41;16.80;;;1.80;;
76393;SDS011;65216;51.090;-115.352;2023-09-30T01:09:08;20.20;;;2.20;;
76393;SDS011;65216;51.090;-115.352;2023-09-30T01:11:36;10.60;;;2.00;;
76393;SDS011;65216;51.090;-115.352;2023-09-30T01:14:05;13.80;;;1.40;;
76393;SDS011;65216;51.090;-115.352;2023-09-30T01:16:49;22.20;;;1.90;;
76393;SDS011;65216;51.090;-115.352;2023-09-30T01:19:16;12.90;;;1.60;;
76393;SDS011;65216;51.090;-115.352;2023-09-30T01:21:44;17.60;;;1.90;;
76393;SDS011;65216;51.090;-115.352;2023-09-30T01:24:15;15.60;;;1.60;;
76393;SDS011;65216;51.090;-115.352;2023-09-30T01:26:42;20.70;;;2.20;;
76393;SDS011;65216;51.090;-115.352;2023-09-30T01:29:12;18.70;;;2.20;;
76393;SDS011;65216;51.090;-115.352;2023-09-30T01:31:39;16.70;;;1.80;;
76393;SDS011;65216;51.090;-115.352;2023-09-30T01:34:08;16.90;;;1.70;;
76393;SDS011;65216;51.090;-115.352;2023-09-30T01:36:39;14.00;;;1.80;;
76393;SDS011;65216;51.090;-115.352;2023-09-30T01:41:39;17.80;;;1.70;;
76393;SDS011;65216;51.090;-115.352;2023-09-30T01:44:07;15.60;;;1.40;;
76393;SDS011;65216;51.090;-115.352;2023-09-30T01:46:35;11.90;;;1.50;;
76393;SDS011;65216;51.090;-115.352;2023-09-30T01:49:02;15.90;;;1.80;;
76393;SDS011;65216;51.090;-115.352;2023-09-30T01:51:32;14.90;;;1.60;;
76393;SDS011;65216;51.090;-115.352;2023-09-30T01:54:03;14.20;;;1.70;;
76393;SDS011;65216;51.090;-115.352;2023-09-30T01:56:31;15.80;;;1.90;;
76393;SDS011;65216;51.090;-115.352;2023-09-30T01:58:59;16.00;;;2.10;;
76393;SDS011;65216;51.090;-115.352;2023-09-30T02:01:26;16.70;;;1.30;;
76393;SDS011;65216;51.090;-115.352;2023-09-30T02:03:55;17.00;;;1.70;;
76393;SDS011;65216;51.090;-115.352;2023-09-30T02:06:27;16.40;;;1.60;;
76393;SDS011;65216;51.090;-115.352;2023-09-30T02:08:59;14.00;;;1.60;;
76393;SDS011;65216;51.090;-115.352;2023-09-30T02:11:29;16.00;;;1.50;;
76393;SDS011;65216;51.090;-115.352;2023-09-30T02:13:56;11.20;;;1.90;;
76393;SDS011;65216;51.090;-115.352;2023-09-30T02:16:25;9.70;;;1.40;;
76393;SDS011;65216;51.090;-115.352;2023-09-30T02:18:52;15.40;;;1.50;;
76393;SDS011;65216;51.090;-115.352;2023-09-30T02:21:20;17.10;;;1.50;;
76393;SDS011;65216;51.090;-115.352;2023-09-30T02:23:48;19.60;;;1.70;;
76393;SDS011;65216;51.090;-115.352;2023-09-30T02:26:18;11.60;;;1.60;;
76393;SDS011;65216;51.090;-115.352;2023-09-30T02:28:48;15.30;;;1.80;;
76393;SDS011;65216;51.090;-115.352;2023-09-30T02:31:15;14.20;;;1.50;;
76393;SDS011;65216;51.090;-115.352;2023-09-30T02:33:43;12.70;;;1.60;;
76393;SDS011;65216;51.090;-115.352;2023-09-30T02:36:10;14.80;;;1.60;;
76393;SDS011;65216;51.090;-115.352;2023-09-30T02:38:38;13.20;;;1.80;;
76393;SDS011;65216;51.090;-115.352;2023-09-30T02:41:08;11.80;;;1.60;;
76393;SDS011;65216;51.090;-115.352;2023-09-30T02:43:35;10.90;;;1.50;;
76393;SDS011;65216;51.090;-115.352;2023-09-30T02:46:07;11.10;;;1.40;;
76393;SDS011;65216;51.090;-115.352;2023-09-30T02:48:34;9.30;;;1.30;;
76393;SDS011;65216;51.090;-115.352;2023-09-30T02:51:01;14.30;;;1.70;;
76393;SDS011;65216;51.090;-115.352;2023-09-30T02:53:27;7.90;;;1.10;;
76393;SDS011;65216;51.090;-115.352;2023-09-30T02:55:54;7.00;;;1.30;;
76393;SDS011;65216;51.090;-115.352;2023-09-30T02:58:25;13.40;;;1.50;;
76393;SDS011;65216;51.090;-115.352;2023-09-30T03:00:53;12.10;;;1.30;;
76393;SDS011;65216;51.090;-115.352;2023-09-30T03:03:20;16.30;;;1.60;;
76393;SDS011;65216;51.090;-115.352;2023-09-30T03:05:52;12.00;;;1.60;;
76393;SDS011;65216;51.090;-115.352;2023-09-30T03:08:20;10.80;;;1.30;;
76393;SDS011;65216;51.090;-115.352;2023-09-30T03:10:48;8.10;;;1.30;;
76393;SDS011;65216;51.090;-115.352;2023-09-30T03:13:15;10.60;;;1.10;;
76393;SDS011;65216;51.090;-115.352;2023-09-30T03:15:44;10.90;;;1.20;;
76393;SDS011;65216;51.090;-115.352;2023-09-30T03:18:13;8.30;;;1.10;;
76393;SDS011;65216;51.090;-115.352;2023-09-30T03:20:42;12.60;;;1.80;;
76393;SDS011;65216;51.090;-115.352;2023-09-30T03:23:10;9.40;;;1.10;;
76393;SDS011;65216;51.090;-115.352;2023-09-30T03:25:39;10.10;;;1.20;;
76393;SDS011;65216;51.090;-115.352;2023-09-30T03:28:08;8.20;;;1.20;;
76393;SDS011;65216;51.090;-115.352;2023-09-30T03:30:35;8.80;;;1.10;;
76393;SDS011;65216;51.090;-115.352;2023-09-30T03:33:02;7.10;;;1.20;;
76393;SDS011;65216;51.090;-115.352;2023-09-30T03:35:30;10.70;;;1.30;;
76393;SDS011;65216;51.090;-115.352;2023-09-30T03:38:01;7.20;;;1.20;;
76393;SDS011;65216;51.090;-115.352;2023-09-30T03:40:28;6.90;;;1.00;;
76393;SDS011;65216;51.090;-115.352;2023-09-30T03:42:59;7.20;;;1.10;;
76393;SDS011;65216;51.090;-115.352;2023-09-30T03:45:26;6.60;;;1.00;;
76393;SDS011;65216;51.090;-115.352;2023-09-30T03:47:53;7.10;;;1.20;;
76393;SDS011;65216;51.090;-115.352;2023-09-30T03:50:25;7.80;;;1.10;;
76393;SDS011;65216;51.090;-115.352;2023-09-30T03:53:04;3.70;;;0.90;;
76393;SDS011;65216;51.090;-115.352;2023-09-30T03:55:33;4.00;;;1.00;;
76393;SDS011;65216;51.090;-115.352;2023-09-30T03:58:03;7.00;;;1.30;;
76393;SDS011;65216;51.090;-115.352;2023-09-30T04:00:30;6.10;;;0.80;;
76393;SDS011;65216;51.090;-115.352;2023-09-30T04:03:00;4.00;;;0.90;;
76393;SDS011;65216;51.090;-115.352;2023-09-30T04:05:28;6.60;;;1.00;;
76393;SDS011;65216;51.090;-115.352;2023-09-30T04:07:58;3.70;;;0.80;;
76393;SDS011;65216;51.090;-115.352;2023-09-30T04:10:25;4.10;;;0.80;;
76393;SDS011;65216;51.090;-115.352;2023-09-30T04:12:52;6.10;;;0.80;;
76393;SDS011;65216;51.090;-115.352;2023-09-30T04:15:20;3.20;;;0.80;;
76393;SDS011;65216;51.090;-115.352;2023-09-30T04:17:48;6.10;;;0.90;;
76393;SDS011;65216;51.090;-115.352;2023-09-30T04:20:17;5.00;;;0.90;;
76393;SDS011;65216;51.090;-115.352;2023-09-30T04:22:52;5.40;;;0.80;;
76393;SDS011;65216;51.090;-115.352;2023-09-30T04:25:23;3.30;;;0.80;;
76393;SDS011;65216;51.090;-115.352;2023-09-30T04:27:53;6.50;;;1.10;;
76393;SDS011;65216;51.090;-115.352;2023-09-30T04:30:20;2.00;;;0.70;;
76393;SDS011;65216;51.090;-115.352;2023-09-30T04:32:48;5.30;;;0.80;;
76393;SDS011;65216;51.090;-115.352;2023-09-30T04:35:15;2.60;;;0.60;;
76393;SDS011;65216;51.090;-115.352;2023-09-30T04:37:44;4.20;;;0.80;;
76393;SDS011;65216;51.090;-115.352;2023-09-30T04:40:11;2.30;;;0.80;;
76393;SDS011;65216;51.090;-115.352;2023-09-30T04:42:42;3.50;;;0.90;;
76393;SDS011;65216;51.090;-115.352;2023-09-30T04:45:16;6.40;;;1.00;;
76393;SDS011;65216;51.090;-115.352;2023-09-30T04:47:45;6.20;;;1.00;;
76393;SDS011;65216;51.090;-115.352;2023-09-30T04:50:15;3.70;;;0.90;;
76393;SDS011;65216;51.090;-115.352;2023-09-30T04:52:43;3.10;;;0.70;;
76393;SDS011;65216;51.090;-115.352;2023-09-30T04:55:13;3.20;;;1.00;;
76393;SDS011;65216;51.090;-115.352;2023-09-30T04:57:45;3.50;;;0.90;;
76393;SDS011;65216;51.090;-115.352;2023-09-30T05:00:15;1.80;;;0.60;;
76393;SDS011;65216;51.090;-115.352;2023-09-30T05:02:44;3.50;;;0.80;;
76393;SDS011;65216;51.090;-115.352;2023-09-30T05:05:11;3.50;;;1.00;;
76393;SDS011;65216;51.090;-115.352;2023-09-30T05:07:41;2.50;;;0.70;;
76393;SDS011;65216;51.090;-115.352;2023-09-30T05:10:13;2.40;;;0.70;;
76393;SDS011;65216;51.090;-115.352;2023-09-30T05:12:43;2.70;;;0.70;;
76393;SDS011;65216;51.090;-115.352;2023-09-30T05:15:14;3.00;;;0.80;;
76393;SDS011;65216;51.090;-115.352;2023-09-30T05:17:45;1.90;;;0.80;;
76393;SDS011;65216;51.090;-115.352;2023-09-30T05:20:13;3.20;;;1.00;;
76393;SDS011;65216;51.090;-115.352;2023-09-30T05:22:43;3.70;;;0.90;;
76393;SDS011;65216;51.090;-115.352;2023-09-30T05:25:15;3.90;;;1.00;;
76393;SDS011;65216;51.090;-115.352;2023-09-30T05:27:44;5.20;;;1.00;;
76393;SDS011;65216;51.090;-115.352;2023-09-30T05:30:16;3.00;;;1.00;;
76393;SDS011;65216;51.090;-115.352;2023-09-30T05:32:45;4.80;;;1.00;;
76393;SDS011;65216;51.090;-115.352;2023-09-30T05:35:12;4.90;;;1.00;;
76393;SDS011;65216;51.090;-115.352;2023-09-30T05:37:45;4.40;;;1.00;;
76393;SDS011;65216;51.090;-115.352;2023-09-30T05:40:12;6.70;;;1.20;;
76393;SDS011;65216;51.090;-115.352;2023-09-30T05:42:53;4.20;;;1.10;;
76393;SDS011;65216;51.090;-115.352;2023-09-30T05:45:28;5.10;;;1.30;;
76393;SDS011;65216;51.090;-115.352;2023-09-30T05:48:02;3.50;;;0.90;;
76393;SDS011;65216;51.090;-115.352;2023-09-30T05:50:33;4.50;;;1.00;;
76393;SDS011;65216;51.090;-115.352;2023-09-30T05:53:02;4.70;;;1.10;;
76393;SDS011;65216;51.090;-115.352;2023-09-30T05:55:32;2.90;;;1.10;;
76393;SDS011;65216;51.090;-115.352;2023-09-30T05:57:59;3.10;;;1.00;;
76393;SDS011;65216;51.090;-115.352;2023-09-30T06:00:26;4.90;;;1.20;;
76393;SDS011;65216;51.090;-115.352;2023-09-30T06:02:57;4.90;;;1.00;;
76393;SDS011;65216;51.090;-115.352;2023-09-30T06:05:24;4.30;;;1.00;;
76393;SDS011;65216;51.090;-115.352;2023-09-30T06:07:56;3.70;;;1.10;;
76393;SDS011;65216;51.090;-115.352;2023-09-30T06:10:23;2.90;;;0.90;;
76393;SDS011;65216;51.090;-115.352;2023-09-30T06:12:52;2.60;;;1.00;;
76393;SDS011;65216;51.090;-115.352;2023-09-30T06:15:21;3.10;;;1.00;;
76393;SDS011;65216;51.090;-115.352;2023-09-30T06:17:52;2.10;;;0.80;;
76393;SDS011;65216;51.090;-115.352;2023-09-30T06:20:20;2.10;;;0.90;;
76393;SDS011;65216;51.090;-115.352;2023-09-30T06:22:52;4.50;;;0.90;;
76393;SDS011;65216;51.090;-115.352;2023-09-30T06:25:22;3.50;;;0.90;;
76393;SDS011;65216;51.090;-115.352;2023-09-30T06:27:50;2.40;;;1.00;;
76393;SDS011;65216;51.090;-115.352;2023-09-30T06:30:18;3.80;;;0.80;;
76393;SDS011;65216;51.090;-115.352;2023-09-30T06:32:48;2.10;;;0.70;;
76393;SDS011;65216;51.090;-115.352;2023-09-30T06:35:15;2.70;;;1.00;;
76393;SDS011;65216;51.090;-115.352;2023-09-30T06:37:42;2.60;;;1.00;;
76393;SDS011;65216;51.090;-115.352;2023-09-30T06:40:11;4.20;;;0.90;;
76393;SDS011;65216;51.090;-115.352;2023-09-30T06:42:39;3.70;;;0.90;;
76393;SDS011;65216;51.090;-115.352;2023-09-30T06:45:08;1.90;;;0.80;;
76393;SDS011;65216;51.090;-115.352;2023-09-30T06:47:40;3.70;;;0.90;;
76393;SDS011;65216;51.090;-115.352;2023-09-30T06:50:13;2.30;;;0.80;;
76393;SDS011;65216;51.090;-115.352;2023-09-30T06:52:45;5.10;;;0.90;;
76393;SDS011;65216;51.090;-115.352;2023-09-30T06:55:15;2.50;;;0.80;;
76393;SDS011;65216;51.090;-115.352;2023-09-30T06:57:44;2.20;;;0.80;;
76393;SDS011;65216;51.090;-115.352;2023-09-30T07:00:13;3.20;;;0.80;;
76393;SDS011;65216;51.090;-115.352;2023-09-30T07:02:41;1.80;;;0.80;;
76393;SDS011;65216;51.090;-115.352;2023-09-30T07:05:11;1.80;;;0.80;;
76393;SDS011;65216;51.090;-115.352;2023-09-30T07:07:40;2.00;;;0.80;;
76393;SDS011;65216;51.090;-115.352;2023-09-30T07:10:11;3.50;;;1.00;;
76393;SDS011;65216;51.090;-115.352;2023-09-30T07:12:39;2.60;;;0.80;;
76393;SDS011;65216;51.090;-115.352;2023-09-30T07:15:06;2.70;;;0.80;;
76393;SDS011;65216;51.090;-115.352;2023-09-30T07:17:36;2.10;;;0.90;;
76393;SDS011;65216;51.090;-115.352;2023-09-30T07:20:04;1.70;;;0.70;;
76393;SDS011;65216;51.090;-115.352;2023-09-30T07:22:32;2.10;;;0.80;;
76393;SDS011;65216;51.090;-115.352;2023-09-30T07:25:00;1.90;;;0.80;;
76393;SDS011;65216;51.090;-115.352;2023-09-30T07:27:27;1.70;;;0.70;;
76393;SDS011;65216;51.090;-115.352;2023-09-30T07:29:57;1.80;;;0.90;;
76393;SDS011;65216;51.090;-115.352;2023-09-30T07:32:25;2.80;;;0.90;;
76393;SDS011;65216;51.090;-115.352;2023-09-30T07:34:52;2.10;;;0.80;;
76393;SDS011;65216;51.090;-115.352;2023-09-30T07:37:19;1.80;;;0.80;;
76393;SDS011;65216;51.090;-115.352;2023-09-30T07:39:46;1.50;;;0.70;;
76393;SDS011;65216;51.090;-115.352;2023-09-30T07:42:13;2.20;;;0.80;;
76393;SDS011;65216;51.090;-115.352;2023-09-30T07:44:40;1.70;;;0.80;;
76393;SDS011;65216;51.090;-115.352;2023-09-30T07:47:07;2.20;;;0.80;;
76393;SDS011;65216;51.090;-115.352;2023-09-30T07:49:35;2.30;;;0.80;;
76393;SDS011;65216;51.090;-115.352;2023-09-30T07:52:02;2.40;;;1.00;;
76393;SDS011;65216;51.090;-115.352;2023-09-30T07:54:29;2.60;;;0.80;;
76393;SDS011;65216;51.090;-115.352;2023-09-30T07:56:56;1.30;;;0.60;;
76393;SDS011;65216;51.090;-115.352;2023-09-30T07:59:27;1.70;;;0.80;;
76393;SDS011;65216;51.090;-115.352;2023-09-30T08:01:54;1.70;;;0.70;;
76393;SDS011;65216;51.090;-115.352;2023-09-30T08:04:23;1.90;;;0.80;;
76393;SDS011;65216;51.090;-115.352;2023-09-30T08:06:50;1.70;;;0.70;;
76393;SDS011;65216;51.090;-115.352;2023-09-30T08:09:17;2.90;;;0.80;;
76393;SDS011;65216;51.090;-115.352;2023-09-30T08:11:44;2.30;;;0.70;;
76393;SDS011;65216;51.090;-115.352;2023-09-30T08:14:13;2.20;;;0.80;;
76393;SDS011;65216;51.090;-115.352;2023-09-30T08:16:43;3.10;;;1.00;;
76393;SDS011;65216;51.090;-115.352;2023-09-30T08:19:10;2.40;;;0.80;;
76393;SDS011;65216;51.090;-115.352;2023-09-30T08:21:36;2.20;;;0.80;;
76393;SDS011;65216;51.090;-115.352;2023-09-30T08:24:03;2.20;;;0.70;;
76393;SDS011;65216;51.090;-115.352;2023-09-30T08:26:30;1.80;;;0.80;;
76393;SDS011;65216;51.090;-115.352;2023-09-30T08:28:59;2.30;;;0.80;;
76393;SDS011;65216;51.090;-115.352;2023-09-30T08:31:28;1.80;;;0.80;;
76393;SDS011;65216;51.090;-115.352;2023-09-30T08:33:56;1.60;;;0.70;;
76393;SDS011;65216;51.090;-115.352;2023-09-30T08:36:23;2.40;;;0.80;;
76393;SDS011;65216;51.090;-115.352;2023-09-30T08:38:50;2.20;;;0.80;;
76393;SDS011;65216;51.090;-115.352;2023-09-30T08:41:30;1.40;;;0.70;;
76393;SDS011;65216;51.090;-115.352;2023-09-30T08:44:01;1.90;;;0.80;;
76393;SDS011;65216;51.090;-115.352;2023-09-30T08:46:34;2.00;;;0.80;;
76393;SDS011;65216;51.090;-115.352;2023-09-30T08:49:03;1.80;;;0.70;;
76393;SDS011;65216;51.090;-115.352;2023-09-30T08:51:34;2.40;;;1.00;;
76393;SDS011;65216;51.090;-115.352;2023-09-30T08:54:01;1.50;;;0.80;;
76393;SDS011;65216;51.090;-115.352;2023-09-30T08:56:31;2.00;;;0.70;;
76393;SDS011;65216;51.090;-115.352;2023-09-30T08:59:04;2.00;;;0.80;;
76393;SDS011;65216;51.090;-115.352;2023-09-30T09:01:31;1.60;;;0.70;;
76393;SDS011;65216;51.090;-115.352;2023-09-30T09:03:58;2.20;;;0.80;;
76393;SDS011;65216;51.090;-115.352;2023-09-30T09:06:26;2.10;;;0.80;;
76393;SDS011;65216;51.090;-115.352;2023-09-30T09:08:53;1.90;;;0.70;;
76393;SDS011;65216;51.090;-115.352;2023-09-30T09:11:38;2.40;;;0.90;;
76393;SDS011;65216;51.090;-115.352;2023-09-30T09:14:06;2.00;;;0.70;;
76393;SDS011;65216;51.090;-115.352;2023-09-30T09:16:35;1.60;;;0.70;;
76393;SDS011;65216;51.090;-115.352;2023-09-30T09:19:13;1.80;;;0.60;;
76393;SDS011;65216;51.090;-115.352;2023-09-30T09:21:54;1.70;;;0.70;;
76393;SDS011;65216;51.090;-115.352;2023-09-30T09:24:31;2.40;;;1.00;;
76393;SDS011;65216;51.090;-115.352;2023-09-30T09:29:36;1.70;;;0.70;;
76393;SDS011;65216;51.090;-115.352;2023-09-30T09:34:40;2.40;;;0.80;;
76393;SDS011;65216;51.090;-115.352;2023-09-30T09:42:30;2.20;;;0.80;;
76393;SDS011;65216;51.090;-115.352;2023-09-30T09:45:04;1.90;;;0.60;;
76393;SDS011;65216;51.090;-115.352;2023-09-30T09:47:32;2.30;;;0.80;;
76393;SDS011;65216;51.090;-115.352;2023-09-30T09:49:59;0.90;;;0.40;;
76393;SDS011;65216;51.090;-115.352;2023-09-30T09:52:31;1.90;;;0.70;;
76393;SDS011;65216;51.090;-115.352;2023-09-30T09:55:02;1.50;;;0.60;;
76393;SDS011;65216;51.090;-115.352;2023-09-30T09:57:31;2.00;;;0.80;;
76393;SDS011;65216;51.090;-115.352;2023-09-30T10:00:00;1.90;;;0.80;;
76393;SDS011;65216;51.090;-115.352;2023-09-30T10:02:32;1.60;;;0.80;;
76393;SDS011;65216;51.090;-115.352;2023-09-30T10:05:02;3.30;;;0.80;;
76393;SDS011;65216;51.090;-115.352;2023-09-30T10:07:38;1.20;;;0.60;;
76393;SDS011;65216;51.090;-115.352;2023-09-30T10:10:14;1.80;;;0.80;;
76393;SDS011;65216;51.090;-115.352;2023-09-30T10:12:43;2.00;;;0.70;;
76393;SDS011;65216;51.090;-115.352;2023-09-30T10:15:35;1.00;;;0.50;;
76393;SDS011;65216;51.090;-115.352;2023-09-30T10:18:07;2.10;;;0.70;;
76393;SDS011;65216;51.090;-115.352;2023-09-30T10:20:42;1.50;;;0.60;;
76393;SDS011;65216;51.090;-115.352;2023-09-30T10:23:29;1.50;;;0.60;;
76393;SDS011;65216;51.090;-115.352;2023-09-30T10:28:43;1.50;;;0.60;;
76393;SDS011;65216;51.090;-115.352;2023-09-30T10:39:04;2.60;;;0.60;;
76393;SDS011;65216;51.090;-115.352;2023-09-30T10:51:58;1.50;;;0.60;;
76393;SDS011;65216;51.090;-115.352;2023-09-30T10:54:30;1.70;;;0.70;;
76393;SDS011;65216;51.090;-115.352;2023-09-30T10:56:59;1.80;;;0.70;;
76393;SDS011;65216;51.090;-115.352;2023-09-30T10:59:28;1.90;;;0.70;;
76393;SDS011;65216;51.090;-115.352;2023-09-30T11:02:03;1.50;;;0.70;;
76393;SDS011;65216;51.090;-115.352;2023-09-30T11:04:47;1.60;;;0.70;;
76393;SDS011;65216;51.090;-115.352;2023-09-30T11:07:20;0.70;;;0.40;;
76393;SDS011;65216;51.090;-115.352;2023-09-30T11:09:50;1.70;;;0.70;;
76393;SDS011;65216;51.090;-115.352;2023-09-30T11:12:17;1.20;;;0.50;;
76393;SDS011;65216;51.090;-115.352;2023-09-30T11:14:44;1.40;;;0.50;;
76393;SDS011;65216;51.090;-115.352;2023-09-30T11:17:14;1.70;;;0.70;;
76393;SDS011;65216;51.090;-115.352;2023-09-30T11:19:52;1.50;;;0.70;;
76393;SDS011;65216;51.090;-115.352;2023-09-30T11:22:22;1.50;;;0.60;;
76393;SDS011;65216;51.090;-115.352;2023-09-30T11:24:50;1.20;;;0.60;;
76393;SDS011;65216;51.090;-115.352;2023-09-30T11:27:23;1.20;;;0.60;;
76393;SDS011;65216;51.090;-115.352;2023-09-30T11:29:50;1.70;;;0.70;;
76393;SDS011;65216;51.090;-115.352;2023-09-30T11:32:28;2.30;;;0.80;;
76393;SDS011;65216;51.090;-115.352;2023-09-30T11:34:55;1.60;;;0.70;;
76393;SDS011;65216;51.090;-115.352;2023-09-30T11:37:22;1.50;;;0.70;;
76393;SDS011;65216;51.090;-115.352;2023-09-30T11:39:49;1.30;;;0.60;;
76393;SDS011;65216;51.090;-115.352;2023-09-30T11:42:18;1.20;;;0.60;;
76393;SDS011;65216;51.090;-115.352;2023-09-30T11:44:47;1.10;;;0.60;;
76393;SDS011;65216;51.090;-115.352;2023-09-30T11:47:14;2.40;;;0.70;;
76393;SDS011;65216;51.090;-115.352;2023-09-30T11:49:43;1.50;;;0.60;;
76393;SDS011;65216;51.090;-115.352;2023-09-30T11:52:26;1.40;;;0.60;;
76393;SDS011;65216;51.090;-115.352;2023-09-30T11:54:54;1.70;;;0.70;;
76393;SDS011;65216;51.090;-115.352;2023-09-30T11:57:22;1.60;;;0.60;;
76393;SDS011;65216;51.090;-115.352;2023-09-30T11:59:48;1.80;;;0.70;;
76393;SDS011;65216;51.090;-115.352;2023-09-30T12:02:17;1.30;;;0.60;;
76393;SDS011;65216;51.090;-115.352;2023-09-30T12:04:45;2.10;;;0.90;;
76393;SDS011;65216;51.090;-115.352;2023-09-30T12:07:15;0.90;;;0.60;;
76393;SDS011;65216;51.090;-115.352;2023-09-30T12:09:42;1.70;;;0.60;;
76393;SDS011;65216;51.090;-115.352;2023-09-30T12:12:09;1.70;;;0.70;;
76393;SDS011;65216;51.090;-115.352;2023-09-30T12:14:37;1.80;;;0.80;;
76393;SDS011;65216;51.090;-115.352;2023-09-30T12:17:04;2.40;;;0.80;;
76393;SDS011;65216;51.090;-115.352;2023-09-30T12:19:31;1.60;;;0.70;;
76393;SDS011;65216;51.090;-115.352;2023-09-30T12:21:58;1.80;;;0.70;;
76393;SDS011;65216;51.090;-115.352;2023-09-30T12:24:25;1.50;;;0.60;;
76393;SDS011;65216;51.090;-115.352;2023-09-30T12:26:52;2.10;;;0.90;;
76393;SDS011;65216;51.090;-115.352;2023-09-30T12:29:21;1.70;;;0.60;;
76393;SDS011;65216;51.090;-115.352;2023-09-30T12:31:51;1.80;;;0.60;;
76393;SDS011;65216;51.090;-115.352;2023-09-30T12:34:20;1.60;;;0.80;;
76393;SDS011;65216;51.090;-115.352;2023-09-30T12:36:52;1.80;;;0.70;;
76393;SDS011;65216;51.090;-115.352;2023-09-30T12:39:20;2.50;;;0.90;;
76393;SDS011;65216;51.090;-115.352;2023-09-30T12:41:50;1.60;;;0.60;;
76393;SDS011;65216;51.090;-115.352;2023-09-30T12:44:20;2.70;;;1.00;;
76393;SDS011;65216;51.090;-115.352;2023-09-30T12:46:49;2.40;;;0.90;;
76393;SDS011;65216;51.090;-115.352;2023-09-30T12:49:18;2.00;;;0.90;;
76393;SDS011;65216;51.090;-115.352;2023-09-30T12:51:45;2.10;;;0.80;;
76393;SDS011;65216;51.090;-115.352;2023-09-30T12:54:15;2.00;;;0.80;;
76393;SDS011;65216;51.090;-115.352;2023-09-30T12:56:44;1.70;;;0.60;;
76393;SDS011;65216;51.090;-115.352;2023-09-30T12:59:12;2.10;;;0.90;;
76393;SDS011;65216;51.090;-115.352;2023-09-30T13:01:39;1.90;;;0.80;;
76393;SDS011;65216;51.090;-115.352;2023-09-30T13:04:06;1.90;;;0.80;;
76393;SDS011;65216;51.090;-115.352;2023-09-30T13:06:34;2.50;;;0.90;;
76393;SDS011;65216;51.090;-115.352;2023-09-30T13:09:03;2.30;;;0.90;;
76393;SDS011;65216;51.090;-115.352;2023-09-30T13:11:30;2.90;;;1.00;;
76393;SDS011;65216;51.090;-115.352;2023-09-30T13:13:57;2.40;;;0.90;;
76393;SDS011;65216;51.090;-115.352;2023-09-30T13:16:24;1.90;;;0.90;;
76393;SDS011;65216;51.090;-115.352;2023-09-30T13:18:51;1.80;;;0.70;;
76393;SDS011;65216;51.090;-115.352;2023-09-30T13:21:18;2.10;;;0.90;;
76393;SDS011;65216;51.090;-115.352;2023-09-30T13:23:45;3.20;;;1.10;;
76393;SDS011;65216;51.090;-115.352;2023-09-30T13:26:13;2.20;;;0.80;;
76393;SDS011;65216;51.090;-115.352;2023-09-30T13:28:42;2.10;;;0.80;;
76393;SDS011;65216;51.090;-115.352;2023-09-30T13:31:09;1.30;;;0.90;;
76393;SDS011;65216;51.090;-115.352;2023-09-30T13:33:36;2.30;;;0.90;;
76393;SDS011;65216;51.090;-115.352;2023-09-30T13:36:04;1.90;;;0.80;;
76393;SDS011;65216;51.090;-115.352;2023-09-30T13:38:31;2.40;;;0.80;;
76393;SDS011;65216;51.090;-115.352;2023-09-30T13:40:59;2.50;;;1.00;;
76393;SDS011;65216;51.090;-115.352;2023-09-30T13:43:29;2.30;;;1.00;;
76393;SDS011;65216;51.090;-115.352;2023-09-30T13:45:56;2.10;;;0.90;;
76393;SDS011;65216;51.090;-115.352;2023-09-30T13:48:23;2.00;;;0.80;;
76393;SDS011;65216;51.090;-115.352;2023-09-30T13:50:56;2.70;;;0.80;;
76393;SDS011;65216;51.090;-115.352;2023-09-30T13:53:32;2.50;;;1.00;;
76393;SDS011;65216;51.090;-115.352;2023-09-30T13:56:02;2.20;;;0.90;;
76393;SDS011;65216;51.090;-115.352;2023-09-30T13:58:29;2.10;;;1.10;;
76393;SDS011;65216;51.090;-115.352;2023-09-30T14:00:56;2.00;;;0.90;;
76393;SDS011;65216;51.090;-115.352;2023-09-30T14:03:23;2.60;;;0.80;;
76393;SDS011;65216;51.090;-115.352;2023-09-30T14:05:52;2.10;;;0.80;;
76393;SDS011;65216;51.090;-115.352;2023-09-30T14:08:19;2.70;;;1.00;;
76393;SDS011;65216;51.090;-115.352;2023-09-30T14:10:46;2.30;;;0.90;;
76393;SDS011;65216;51.090;-115.352;2023-09-30T14:13:13;2.90;;;1.00;;
76393;SDS011;65216;51.090;-115.352;2023-09-30T14:15:41;2.10;;;0.80;;
76393;SDS011;65216;51.090;-115.352;2023-09-30T14:18:07;2.80;;;1.10;;
76393;SDS011;65216;51.090;-115.352;2023-09-30T14:20:34;3.00;;;0.90;;
76393;SDS011;65216;51.090;-115.352;2023-09-30T14:23:02;3.30;;;1.20;;
76393;SDS011;65216;51.090;-115.352;2023-09-30T14:25:29;2.70;;;1.40;;
76393;SDS011;65216;51.090;-115.352;2023-09-30T14:27:56;2.90;;;1.00;;
76393;SDS011;65216;51.090;-115.352;2023-09-30T14:30:25;2.60;;;1.10;;
76393;SDS011;65216;51.090;-115.352;2023-09-30T14:32:52;2.60;;;1.00;;
76393;SDS011;65216;51.090;-115.352;2023-09-30T14:35:20;2.60;;;1.00;;
76393;SDS011;65216;51.090;-115.352;2023-09-30T14:37:47;2.20;;;0.90;;
76393;SDS011;65216;51.090;-115.352;2023-09-30T14:40:14;2.20;;;0.90;;
76393;SDS011;65216;51.090;-115.352;2023-09-30T14:42:42;2.50;;;0.80;;
76393;SDS011;65216;51.090;-115.352;2023-09-30T14:45:09;2.40;;;1.00;;
76393;SDS011;65216;51.090;-115.352;2023-09-30T14:47:38;2.70;;;1.00;;
76393;SDS011;65216;51.090;-115.352;2023-09-30T14:50:08;2.40;;;1.00;;
76393;SDS011;65216;51.090;-115.352;2023-09-30T14:52:36;2.40;;;0.90;;